createdAt,value
2018-11-27T00:00:08.638Z,56.21
2018-11-27T00:02:36.288Z,56.36
2018-11-27T00:05:04.029Z,57.16
2018-11-27T00:07:31.676Z,56.86
2018-11-27T00:09:59.439Z,56.57
2018-11-27T00:12:27.061Z,56.94
2018-11-27T00:14:54.664Z,57.21
2018-11-27T00:17:22.347Z,57.06
2018-11-27T00:19:50.015Z,57.25
2018-11-27T00:22:17.709Z,57.30
2018-11-27T00:24:45.427Z,57.37
2018-11-27T00:27:13.092Z,57.46
2018-11-27T00:29:40.763Z,57.46
2018-11-27T00:32:08.397Z,57.13
2018-11-27T00:34:36.184Z,58.57
2018-11-27T00:37:03.818Z,58.34
2018-11-27T00:39:31.492Z,58.37
2018-11-27T00:41:59.154Z,57.83
2018-11-27T00:44:26.728Z,57.72
2018-11-27T00:46:54.422Z,57.59
2018-11-27T00:49:22.028Z,57.46
2018-11-27T00:51:49.864Z,57.38
2018-11-27T00:54:17.499Z,57.42
2018-11-27T00:56:45.178Z,57.64
2018-11-27T00:59:12.839Z,57.30
2018-11-27T01:01:40.479Z,57.02
2018-11-27T01:04:08.141Z,57.10
2018-11-27T01:06:35.742Z,57.13
2018-11-27T01:09:04.630Z,58.20
2018-11-27T01:11:32.224Z,57.86
2018-11-27T01:13:59.918Z,58.04
2018-11-27T01:16:27.547Z,57.96
2018-11-27T01:18:55.232Z,58.01
2018-11-27T01:21:22.924Z,58.24
2018-11-27T01:23:50.565Z,57.87
2018-11-27T01:26:18.270Z,57.63
2018-11-27T01:28:45.953Z,57.90
2018-11-27T01:31:13.580Z,58.09
2018-11-27T01:33:41.272Z,58.21
2018-11-27T01:36:08.957Z,58.31
2018-11-27T01:38:36.641Z,58.46
2018-11-27T01:41:04.278Z,58.46
2018-11-27T01:43:31.893Z,58.87
2018-11-27T01:45:59.571Z,58.54
2018-11-27T01:48:27.178Z,59.31
2018-11-27T01:50:54.852Z,59.16
2018-11-27T01:53:22.456Z,58.56
2018-11-27T01:55:50.127Z,58.15
2018-11-27T01:58:17.739Z,58.10
2018-11-27T02:00:45.386Z,58.42
2018-11-27T02:03:13.032Z,58.27
2018-11-27T02:05:40.711Z,58.27
2018-11-27T02:08:08.339Z,58.57
2018-11-27T02:10:36.142Z,57.99
2018-11-27T02:13:03.828Z,58.09
2018-11-27T02:15:31.467Z,58.03
2018-11-27T02:17:59.126Z,58.08
2018-11-27T02:20:26.768Z,57.82
2018-11-27T02:22:54.531Z,57.96
2018-11-27T02:25:25.252Z,58.38
2018-11-27T02:27:52.911Z,57.98
2018-11-27T02:30:21.851Z,57.99
2018-11-27T02:32:49.562Z,58.56
2018-11-27T02:35:17.964Z,58.20
2018-11-27T02:37:46.209Z,57.88
2018-11-27T02:40:14.893Z,57.98
2018-11-27T02:42:42.516Z,58.40
2018-11-27T02:45:12.154Z,58.35
2018-11-27T02:47:40.042Z,58.24
2018-11-27T02:50:10.815Z,58.18
2018-11-27T02:52:38.536Z,58.03
2018-11-27T02:55:08.200Z,58.43
2018-11-27T02:57:35.900Z,58.45
2018-11-27T03:00:03.705Z,58.70
2018-11-27T03:02:31.461Z,58.82
2018-11-27T03:04:59.086Z,59.11
2018-11-27T03:07:26.769Z,58.98
2018-11-27T03:09:54.474Z,58.94
2018-11-27T03:12:22.126Z,59.14
2018-11-27T03:14:49.806Z,58.66
2018-11-27T03:17:17.460Z,58.63
2018-11-27T03:19:45.116Z,58.55
2018-11-27T03:22:12.794Z,59.28
2018-11-27T03:24:40.456Z,58.96
2018-11-27T03:27:08.086Z,58.84
2018-11-27T03:29:35.754Z,59.12
2018-11-27T03:32:03.421Z,58.87
2018-11-27T03:34:31.088Z,58.70
2018-11-27T03:36:58.778Z,59.09
2018-11-27T03:39:26.452Z,59.11
2018-11-27T03:41:54.421Z,58.58
2018-11-27T03:44:22.056Z,58.99
2018-11-27T03:46:49.713Z,59.25
2018-11-27T03:49:17.440Z,58.82
2018-11-27T03:51:45.028Z,58.76
2018-11-27T03:54:12.721Z,58.63
2018-11-27T03:56:40.357Z,59.27
2018-11-27T03:59:08.075Z,59.10
2018-11-27T04:01:35.753Z,59.61
2018-11-27T04:04:03.399Z,59.13
2018-11-27T04:06:31.039Z,59.23
2018-11-27T04:08:58.686Z,59.03
2018-11-27T04:11:26.330Z,59.17
2018-11-27T04:13:53.931Z,59.16
2018-11-27T04:16:21.554Z,59.24
2018-11-27T04:18:49.226Z,59.13
2018-11-27T04:21:16.987Z,59.39
2018-11-27T04:23:44.633Z,59.11
2018-11-27T04:26:12.255Z,59.56
2018-11-27T04:28:39.934Z,59.04
2018-11-27T04:31:07.571Z,58.65
2018-11-27T04:33:35.187Z,58.70
2018-11-27T04:36:02.810Z,58.67
2018-11-27T04:38:30.386Z,58.54
2018-11-27T04:40:58.196Z,58.40
2018-11-27T04:43:25.816Z,58.49
2018-11-27T04:45:53.457Z,58.48
2018-11-27T04:48:21.245Z,58.19
2018-11-27T04:50:48.927Z,58.32
2018-11-27T04:53:16.546Z,58.22
2018-11-27T04:55:44.273Z,58.12
2018-11-27T04:58:11.908Z,58.18
2018-11-27T05:00:39.550Z,58.40
2018-11-27T05:03:07.224Z,57.86
2018-11-27T05:05:35.179Z,58.14
2018-11-27T05:08:02.867Z,57.91
2018-11-27T05:10:30.498Z,58.12
2018-11-27T05:12:58.231Z,58.29
2018-11-27T05:15:26.474Z,57.91
2018-11-27T05:17:56.269Z,57.64
2018-11-27T05:20:23.932Z,57.81
2018-11-27T05:22:51.582Z,58.14
2018-11-27T05:25:19.522Z,59.27
2018-11-27T05:27:53.177Z,59.02
2018-11-27T05:30:22.904Z,59.22
2018-11-27T05:32:50.579Z,58.99
2018-11-27T05:35:20.673Z,59.06
2018-11-27T05:37:49.063Z,58.31
2018-11-27T05:40:21.777Z,57.88
2018-11-27T05:42:51.796Z,57.72
2018-11-27T05:45:20.561Z,57.47
2018-11-27T05:47:48.396Z,57.05
2018-11-27T05:50:17.083Z,57.02
2018-11-27T05:52:44.776Z,56.92
2018-11-27T05:55:13.220Z,56.73
2018-11-27T05:57:41.191Z,56.65
2018-11-27T06:00:11.651Z,56.63
2018-11-27T06:02:39.587Z,56.55
2018-11-27T06:05:10.315Z,56.21
2018-11-27T06:07:37.944Z,56.58
2018-11-27T06:10:06.314Z,56.56
2018-11-27T06:12:33.996Z,56.28
2018-11-27T06:15:01.663Z,56.45
2018-11-27T06:17:29.341Z,56.32
2018-11-27T06:19:56.995Z,56.56
2018-11-27T06:22:24.766Z,56.22
2018-11-27T06:24:52.409Z,55.90
2018-11-27T06:27:20.044Z,56.34
2018-11-27T06:29:47.707Z,56.23
2018-11-27T06:32:15.351Z,56.06
2018-11-27T06:34:43.136Z,56.33
2018-11-27T06:37:10.807Z,55.99
2018-11-27T06:39:38.528Z,56.17
2018-11-27T06:42:06.242Z,56.23
2018-11-27T06:44:34.041Z,55.84
2018-11-27T06:47:01.706Z,56.14
2018-11-27T06:49:29.381Z,55.75
2018-11-27T06:51:57.061Z,55.80
2018-11-27T06:54:27.135Z,56.29
2018-11-27T06:56:59.057Z,56.75
2018-11-27T06:59:27.364Z,56.87
2018-11-27T07:01:55.520Z,57.46
2018-11-27T07:04:23.938Z,56.99
2018-11-27T07:06:52.023Z,56.96
2018-11-27T07:09:20.240Z,57.13
2018-11-27T07:11:48.577Z,56.84
2018-11-27T07:14:25.071Z,56.96
2018-11-27T07:16:53.461Z,57.25
2018-11-27T07:19:21.898Z,57.23
2018-11-27T07:21:50.898Z,57.02
2018-11-27T07:24:18.613Z,57.00
2018-11-27T07:26:46.247Z,57.38
2018-11-27T07:29:13.882Z,57.17
2018-11-27T07:31:41.503Z,56.53
2018-11-27T07:34:09.187Z,56.54
2018-11-27T07:36:36.806Z,56.81
2018-11-27T07:39:06.159Z,56.57
2018-11-27T07:41:33.804Z,56.52
2018-11-27T07:44:01.469Z,56.45
2018-11-27T07:46:29.126Z,56.16
2018-11-27T07:48:56.916Z,56.22
2018-11-27T07:51:24.621Z,56.07
2018-11-27T07:53:52.694Z,55.88
2018-11-27T07:56:20.389Z,55.88
2018-11-27T07:58:48.007Z,55.79
2018-11-27T08:01:15.797Z,55.85
2018-11-27T08:03:43.608Z,55.85
2018-11-27T08:06:11.281Z,55.57
2018-11-27T08:08:38.879Z,55.49
2018-11-27T08:11:06.553Z,55.73
2018-11-27T08:13:34.159Z,55.62
2018-11-27T08:16:01.815Z,55.24
2018-11-27T08:18:29.513Z,55.53
2018-11-27T08:20:57.187Z,55.39
2018-11-27T08:23:24.803Z,55.40
2018-11-27T08:25:52.462Z,55.33
2018-11-27T08:28:20.110Z,55.36
2018-11-27T08:30:47.758Z,55.33
2018-11-27T08:33:15.433Z,55.21
2018-11-27T08:35:43.028Z,54.96
2018-11-27T08:38:10.708Z,55.12
2018-11-27T08:40:38.367Z,54.79
2018-11-27T08:43:06.893Z,54.98
2018-11-27T08:45:34.508Z,55.04
2018-11-27T08:48:02.163Z,54.67
2018-11-27T08:50:29.874Z,54.65
2018-11-27T08:52:59.155Z,54.75
2018-11-27T08:55:34.463Z,54.71
2018-11-27T08:58:02.812Z,54.75
2018-11-27T09:00:30.447Z,54.52
2018-11-27T09:02:58.097Z,54.44
2018-11-27T09:05:25.741Z,54.44
2018-11-27T09:07:53.405Z,54.42
2018-11-27T09:10:22.304Z,54.39
2018-11-27T09:12:50.000Z,54.42
2018-11-27T09:15:18.582Z,54.63
2018-11-27T09:17:47.896Z,54.71
2018-11-27T09:20:15.489Z,54.59
2018-11-27T09:22:43.099Z,54.50
2018-11-27T09:25:12.720Z,54.32
2018-11-27T09:27:40.480Z,54.32
2018-11-27T09:30:14.238Z,54.06
2018-11-27T09:32:41.918Z,54.32
2018-11-27T09:35:09.921Z,54.40
2018-11-27T09:37:38.025Z,54.24
2018-11-27T09:40:08.566Z,54.29
2018-11-27T09:42:36.237Z,54.15
2018-11-27T09:45:04.403Z,54.28
2018-11-27T09:47:32.079Z,54.12
2018-11-27T09:49:59.820Z,54.12
2018-11-27T09:52:27.493Z,53.92
2018-11-27T09:54:55.134Z,54.04
2018-11-27T09:57:22.825Z,53.79
2018-11-27T09:59:50.623Z,53.76
2018-11-27T10:02:18.340Z,53.67
2018-11-27T10:04:45.990Z,53.66
2018-11-27T10:07:13.626Z,53.68
2018-11-27T10:09:41.361Z,53.86
2018-11-27T10:12:08.967Z,53.75
2018-11-27T10:14:37.535Z,53.59
2018-11-27T10:17:05.199Z,53.90
2018-11-27T10:19:32.869Z,53.90
2018-11-27T10:22:00.512Z,53.80
2018-11-27T10:24:28.202Z,53.62
2018-11-27T10:26:55.918Z,53.76
2018-11-27T10:29:23.559Z,53.58
2018-11-27T10:31:51.284Z,53.57
2018-11-27T10:34:19.319Z,53.58
2018-11-27T10:36:46.965Z,53.38
2018-11-27T10:39:14.663Z,53.20
2018-11-27T10:41:42.439Z,53.39
2018-11-27T10:44:10.133Z,53.19
2018-11-27T10:46:37.756Z,53.11
2018-11-27T10:49:05.718Z,53.09
2018-11-27T10:51:33.363Z,53.02
2018-11-27T10:54:01.028Z,53.38
2018-11-27T10:56:28.708Z,52.78
2018-11-27T10:58:56.358Z,52.87
2018-11-27T11:01:29.518Z,52.91
2018-11-27T11:03:57.926Z,53.06
2018-11-27T11:06:25.567Z,52.83
2018-11-27T11:08:53.218Z,53.02
2018-11-27T11:11:20.909Z,52.87
2018-11-27T11:13:48.599Z,53.08
2018-11-27T11:16:16.461Z,52.99
2018-11-27T11:18:44.088Z,52.64
2018-11-27T11:21:11.922Z,52.96
2018-11-27T11:23:39.595Z,52.67
2018-11-27T11:26:07.400Z,52.75
2018-11-27T11:28:35.102Z,52.94
2018-11-27T11:31:02.822Z,52.84
2018-11-27T11:33:30.587Z,52.67
2018-11-27T11:35:58.236Z,52.92
2018-11-27T11:38:25.883Z,52.94
2018-11-27T11:40:53.556Z,52.88
2018-11-27T11:43:22.092Z,53.14
2018-11-27T11:45:49.761Z,52.81
2018-11-27T11:48:17.613Z,53.43
2018-11-27T11:50:45.277Z,53.56
2018-11-27T11:53:16.085Z,53.75
2018-11-27T11:55:44.047Z,53.81
2018-11-27T11:58:11.722Z,54.09
2018-11-27T12:00:42.951Z,54.00
2018-11-27T12:03:10.598Z,54.50
2018-11-27T12:05:38.832Z,54.19
2018-11-27T12:08:07.968Z,54.27
2018-11-27T12:10:36.020Z,54.44
2018-11-27T12:13:03.829Z,54.61
2018-11-27T12:15:31.590Z,54.52
2018-11-27T12:17:59.185Z,53.93
2018-11-27T12:20:26.849Z,53.25
2018-11-27T12:22:54.498Z,52.88
2018-11-27T12:25:24.392Z,52.51
2018-11-27T12:27:50.552Z,52.67
2018-11-27T12:30:22.980Z,52.91
2018-11-27T12:32:50.827Z,52.84
2018-11-27T12:35:19.151Z,52.70
2018-11-27T12:37:47.013Z,52.62
2018-11-27T12:40:20.724Z,52.84
2018-11-27T12:42:50.127Z,52.47
2018-11-27T12:45:23.591Z,52.67
2018-11-27T12:47:51.637Z,52.45
2018-11-27T12:50:33.789Z,52.88
2018-11-27T12:53:02.259Z,53.01
2018-11-27T12:55:30.121Z,52.78
2018-11-27T12:57:59.270Z,53.20
2018-11-27T13:00:33.343Z,52.99
2018-11-27T13:03:01.148Z,52.61
2018-11-27T13:05:33.620Z,53.05
2018-11-27T13:08:02.855Z,53.57
2018-11-27T13:10:32.745Z,53.04
2018-11-27T13:13:00.395Z,53.24
2018-11-27T13:15:28.757Z,53.57
2018-11-27T13:17:58.903Z,52.86
2018-11-27T13:20:26.703Z,53.16
2018-11-27T13:22:56.017Z,53.02
2018-11-27T13:25:34.484Z,52.39
2018-11-27T13:28:05.694Z,52.70
2018-11-27T13:30:42.766Z,52.78
2018-11-27T13:33:20.764Z,52.98
2018-11-27T13:35:53.125Z,52.71
2018-11-27T13:38:21.863Z,53.24
2018-11-27T13:40:52.434Z,53.36
2018-11-27T13:43:32.913Z,54.10
2018-11-27T13:46:06.759Z,53.93
2018-11-27T13:48:43.362Z,53.34
2018-11-27T13:51:11.590Z,54.58
2018-11-27T13:53:39.524Z,54.74
2018-11-27T13:56:07.226Z,54.47
2018-11-27T13:58:35.020Z,54.84
2018-11-27T14:01:02.712Z,54.92
2018-11-27T14:03:30.360Z,54.58
2018-11-27T14:05:58.084Z,54.33
2018-11-27T14:08:25.847Z,54.03
2018-11-27T14:10:53.619Z,54.33
2018-11-27T14:13:21.313Z,53.93
2018-11-27T14:15:48.984Z,53.96
2018-11-27T14:18:16.710Z,53.85
2018-11-27T14:20:45.358Z,53.33
2018-11-27T14:23:12.317Z,53.38
2018-11-27T14:25:40.006Z,54.06
2018-11-27T14:28:07.675Z,53.45
2018-11-27T14:30:35.400Z,53.89
2018-11-27T14:33:03.126Z,54.02
2018-11-27T14:35:30.848Z,53.67
2018-11-27T14:37:58.529Z,54.28
2018-11-27T14:40:27.665Z,53.50
2018-11-27T14:42:55.588Z,54.01
2018-11-27T14:45:25.494Z,54.01
2018-11-27T14:47:55.291Z,53.91
2018-11-27T14:50:24.198Z,53.91
2018-11-27T14:52:51.944Z,53.96
2018-11-27T14:55:22.683Z,53.86
2018-11-27T14:57:50.637Z,53.79
2018-11-27T15:00:22.386Z,53.99
2018-11-27T15:02:50.106Z,54.03
2018-11-27T15:05:20.504Z,53.86
2018-11-27T15:07:48.213Z,54.04
2018-11-27T15:10:15.879Z,53.84
2018-11-27T15:12:43.542Z,54.06
2018-11-27T15:15:12.882Z,53.89
2018-11-27T15:17:40.609Z,53.89
2018-11-27T15:20:12.050Z,53.88
2018-11-27T15:22:39.719Z,53.88
2018-11-27T15:25:07.744Z,53.83
2018-11-27T15:27:36.363Z,53.76
2018-11-27T15:30:09.067Z,53.83
2018-11-27T15:32:36.793Z,53.62
2018-11-27T15:35:04.461Z,53.68
2018-11-27T15:37:32.213Z,53.85
2018-11-27T15:39:59.952Z,53.85
2018-11-27T15:42:27.643Z,53.85
2018-11-27T15:44:55.307Z,53.72
2018-11-27T15:47:22.940Z,53.46
2018-11-27T15:49:50.633Z,53.64
2018-11-27T15:52:18.378Z,53.60
2018-11-27T15:54:46.076Z,53.60
2018-11-27T15:57:14.062Z,53.78
2018-11-27T15:59:41.876Z,53.64
2018-11-27T16:02:09.523Z,53.77
2018-11-27T16:04:37.149Z,53.73
2018-11-27T16:07:04.956Z,53.70
2018-11-27T16:09:33.078Z,53.79
2018-11-27T16:12:00.813Z,53.79
2018-11-27T16:14:28.661Z,53.63
2018-11-27T16:16:56.419Z,53.68
2018-11-27T16:19:24.672Z,53.85
2018-11-27T16:21:52.351Z,53.69
2018-11-27T16:24:20.384Z,53.38
2018-11-27T16:26:48.310Z,53.65
2018-11-27T16:29:16.733Z,53.36
2018-11-27T16:31:44.978Z,53.39
2018-11-27T16:34:12.262Z,53.74
2018-11-27T16:36:39.990Z,53.61
2018-11-27T16:39:10.620Z,53.57
2018-11-27T16:41:38.548Z,53.27
2018-11-27T16:44:06.446Z,53.64
2018-11-27T16:46:34.134Z,53.67
2018-11-27T16:49:01.972Z,53.77
2018-11-27T16:51:29.804Z,53.65
2018-11-27T16:53:57.708Z,53.71
2018-11-27T16:56:25.395Z,53.48
2018-11-27T16:58:53.148Z,53.55
2018-11-27T17:01:20.839Z,53.63
2018-11-27T17:03:48.498Z,53.62
2018-11-27T17:06:16.316Z,53.54
2018-11-27T17:08:44.024Z,53.80
2018-11-27T17:11:11.796Z,54.43
2018-11-27T17:13:39.564Z,54.12
2018-11-27T17:16:07.318Z,54.17
2018-11-27T17:18:34.961Z,54.14
2018-11-27T17:21:02.686Z,53.74
2018-11-27T17:23:30.394Z,53.80
2018-11-27T17:26:03.849Z,53.78
2018-11-27T17:28:28.604Z,53.62
2018-11-27T17:31:03.374Z,53.86
2018-11-27T17:33:35.361Z,53.71
2018-11-27T17:36:03.894Z,54.00
2018-11-27T17:38:31.564Z,54.04
2018-11-27T17:40:59.300Z,53.71
2018-11-27T17:43:26.956Z,53.91
2018-11-27T17:45:54.646Z,53.70
2018-11-27T17:48:22.343Z,53.73
2018-11-27T17:50:50.046Z,53.88
2018-11-27T17:53:17.702Z,53.86
2018-11-27T17:55:45.506Z,53.89
2018-11-27T17:58:13.156Z,53.71
2018-11-27T18:00:40.917Z,53.59
2018-11-27T18:03:09.644Z,53.88
2018-11-27T18:05:37.314Z,53.77
2018-11-27T18:08:05.860Z,54.03
2018-11-27T18:10:33.723Z,53.97
2018-11-27T18:13:01.417Z,53.83
2018-11-27T18:15:29.092Z,54.05
2018-11-27T18:17:56.830Z,54.02
2018-11-27T18:20:24.605Z,53.83
2018-11-27T18:22:52.307Z,53.86
2018-11-27T18:25:20.442Z,54.09
2018-11-27T18:27:49.151Z,53.84
2018-11-27T18:30:18.185Z,53.64
2018-11-27T18:32:45.901Z,53.77
2018-11-27T18:35:15.478Z,53.96
2018-11-27T18:37:43.259Z,53.94
2018-11-27T18:40:11.992Z,53.80
2018-11-27T18:42:39.771Z,53.86
2018-11-27T18:45:15.564Z,53.89
2018-11-27T18:47:43.310Z,54.05
2018-11-27T18:50:11.617Z,54.07
2018-11-27T18:52:39.353Z,54.06
2018-11-27T18:55:09.583Z,53.94
2018-11-27T18:57:37.247Z,54.03
2018-11-27T19:00:12.416Z,54.01
2018-11-27T19:02:40.065Z,54.00
2018-11-27T19:05:07.706Z,53.87
2018-11-27T19:07:35.320Z,54.13
2018-11-27T19:10:03.031Z,54.08
2018-11-27T19:12:30.767Z,54.13
2018-11-27T19:14:58.403Z,54.11
2018-11-27T19:17:26.060Z,54.16
2018-11-27T19:19:53.695Z,53.96
2018-11-27T19:22:21.559Z,54.02
2018-11-27T19:24:49.161Z,54.27
2018-11-27T19:27:16.843Z,54.26
2018-11-27T19:29:44.517Z,54.17
2018-11-27T19:32:12.208Z,54.21
2018-11-27T19:34:39.885Z,54.04
2018-11-27T19:37:07.545Z,54.06
2018-11-27T19:39:35.183Z,53.99
2018-11-27T19:42:02.839Z,53.95
2018-11-27T19:44:30.491Z,53.90
2018-11-27T19:46:58.123Z,54.33
2018-11-27T19:49:25.810Z,53.93
2018-11-27T19:51:53.548Z,54.04
2018-11-27T19:54:21.353Z,53.99
2018-11-27T19:56:48.955Z,54.21
2018-11-27T19:59:16.598Z,53.98
2018-11-27T20:01:44.276Z,54.13
2018-11-27T20:04:11.932Z,54.19
2018-11-27T20:06:39.566Z,53.98
2018-11-27T20:09:08.610Z,54.12
2018-11-27T20:11:36.366Z,54.00
2018-11-27T20:14:04.118Z,54.15
2018-11-27T20:16:31.785Z,54.05
2018-11-27T20:18:59.468Z,53.96
2018-11-27T20:21:27.106Z,53.92
2018-11-27T20:23:54.779Z,53.86
2018-11-27T20:26:22.417Z,54.01
2018-11-27T20:28:50.061Z,54.15
2018-11-27T20:31:17.760Z,53.97
2018-11-27T20:33:45.418Z,53.83
2018-11-27T20:36:13.106Z,53.92
2018-11-27T20:38:40.841Z,53.89
2018-11-27T20:41:08.567Z,54.28
2018-11-27T20:43:36.243Z,54.27
2018-11-27T20:46:06.005Z,54.46
2018-11-27T20:48:33.777Z,54.54
2018-11-27T20:51:01.602Z,54.76
2018-11-27T20:53:30.710Z,54.83
2018-11-27T20:55:58.611Z,54.94
2018-11-27T20:58:26.245Z,54.88
2018-11-27T21:00:53.934Z,54.83
2018-11-27T21:03:21.830Z,54.97
2018-11-27T21:05:49.495Z,54.84
2018-11-27T21:08:19.621Z,54.28
2018-11-27T21:10:47.478Z,55.42
2018-11-27T21:13:19.882Z,55.25
2018-11-27T21:15:51.140Z,55.32
2018-11-27T21:18:19.143Z,55.38
2018-11-27T21:20:49.747Z,55.82
2018-11-27T21:23:17.912Z,55.38
2018-11-27T21:25:45.639Z,55.32
2018-11-27T21:28:15.484Z,55.41
2018-11-27T21:30:44.299Z,55.29
2018-11-27T21:33:12.872Z,55.76
2018-11-27T21:35:40.918Z,55.55
2018-11-27T21:38:09.267Z,56.03
2018-11-27T21:40:37.032Z,55.65
2018-11-27T21:43:05.944Z,56.20
2018-11-27T21:45:34.091Z,56.16
2018-11-27T21:48:02.385Z,55.89
2018-11-27T21:50:35.540Z,55.67
2018-11-27T21:53:04.863Z,55.67
2018-11-27T21:55:33.213Z,55.50
2018-11-27T21:58:00.883Z,55.66
2018-11-27T22:00:29.536Z,55.73
2018-11-27T22:02:57.787Z,55.65
2018-11-27T22:05:25.455Z,56.24
2018-11-27T22:07:53.145Z,56.12
2018-11-27T22:10:21.996Z,56.35
2018-11-27T22:12:55.224Z,55.53
2018-11-27T22:15:32.843Z,55.27
2018-11-27T22:18:00.817Z,55.45
2018-11-27T22:20:28.546Z,55.32
2018-11-27T22:22:56.252Z,55.43
2018-11-27T22:25:23.992Z,55.72
2018-11-27T22:27:52.129Z,55.86
2018-11-27T22:30:20.452Z,55.58
2018-11-27T22:32:49.726Z,55.53
2018-11-27T22:35:17.449Z,55.87
2018-11-27T22:37:45.199Z,55.75
2018-11-27T22:40:15.076Z,55.60
2018-11-27T22:42:47.727Z,55.77
2018-11-27T22:45:26.139Z,55.90
2018-11-27T22:47:54.725Z,56.03
2018-11-27T22:50:23.250Z,55.99
2018-11-27T22:52:51.268Z,56.06
2018-11-27T22:55:19.357Z,55.96
2018-11-27T22:57:47.088Z,55.98
2018-11-27T23:00:20.082Z,55.88
2018-11-27T23:02:47.809Z,55.86
2018-11-27T23:05:16.715Z,56.10
2018-11-27T23:07:44.457Z,56.00
2018-11-27T23:10:13.158Z,55.97
2018-11-27T23:12:41.323Z,55.94
2018-11-27T23:15:11.919Z,56.17
2018-11-27T23:17:39.565Z,56.09
2018-11-27T23:20:14.384Z,56.11
2018-11-27T23:22:42.141Z,56.16
2018-11-27T23:25:11.201Z,56.01
2018-11-27T23:27:38.904Z,56.19
2018-11-27T23:30:13.681Z,56.04
2018-11-27T23:32:41.344Z,56.25
2018-11-27T23:35:09.077Z,56.42
2018-11-27T23:37:36.818Z,56.71
2018-11-27T23:40:05.727Z,56.34
2018-11-27T23:42:33.447Z,56.15
2018-11-27T23:45:01.536Z,56.07
2018-11-27T23:47:29.220Z,56.27
2018-11-27T23:49:56.968Z,56.05
2018-11-27T23:52:24.649Z,55.77
2018-11-27T23:54:52.345Z,55.85
2018-11-27T23:57:20.194Z,55.93
2018-11-27T23:59:47.899Z,56.06
